Time;durP1;ratioP1;P1;durP2;ratioP2;P2;SDS_P1;SDS_P2;PMS_P1;PMS_P2;Temp;Humidity;BMP_temperature;BMP_pressure;BME280_temperature;BME280_humidity;BME280_pressure;Samples;Min_cycle;Max_cycle;Signal;HPM_P1;HPM_P2
2021/05/03 00:00:50;;;;;;;2.20;1.00;;;;;;;9.84;66.98;95319.78;1754509;82;21106;-62
2021/05/03 00:03:17;;;;;;;7.50;1.00;;;;;;;9.79;67.36;95317.23;1754229;82;21098;-62
2021/05/03 00:05:46;;;;;;;2.10;1.20;;;;;;;9.72;67.34;95303.30;1754105;81;21133;-62
2021/05/03 00:08:14;;;;;;;4.70;0.90;;;;;;;9.66;67.69;95310.48;1754462;81;21161;-62
2021/05/03 00:10:42;;;;;;;1.10;0.83;;;;;;;9.59;67.59;95312.81;1754175;81;21146;-62
2021/05/03 00:13:09;;;;;;;1.00;0.97;;;;;;;9.56;68.59;95316.83;1753996;81;21133;-62
2021/05/03 00:15:37;;;;;;;1.50;0.90;;;;;;;9.48;68.23;95321.78;1754188;82;21168;-62
2021/05/03 00:18:05;;;;;;;3.73;0.90;;;;;;;9.41;67.96;95320.61;1754007;82;21160;-62
2021/05/03 00:20:33;;;;;;;3.00;1.30;;;;;;;9.37;68.85;95326.36;1754179;82;21623;-62
2021/05/03 00:23:01;;;;;;;1.30;0.93;;;;;;;9.30;68.48;95328.72;1754386;82;21149;-62
2021/05/03 00:25:29;;;;;;;1.50;1.00;;;;;;;9.20;68.82;95330.64;1754112;82;21138;-62
2021/05/03 00:27:57;;;;;;;3.73;1.00;;;;;;;9.09;69.55;95336.06;1754078;82;21137;-62
2021/05/03 00:30:25;;;;;;;5.57;1.40;;;;;;;9.03;69.52;95338.81;1754325;82;21586;-62
2021/05/03 00:32:52;;;;;;;3.63;1.60;;;;;;;8.98;69.29;95335.39;1754089;82;21153;-62
2021/05/03 00:35:20;;;;;;;2.90;1.50;;;;;;;8.99;68.94;95327.04;1754198;82;21579;-62
2021/05/03 00:37:49;;;;;;;5.33;1.10;;;;;;;8.92;69.48;95332.88;1754174;82;21145;-62
2021/05/03 00:40:17;;;;;;;2.27;1.20;;;;;;;8.84;69.59;95338.26;1754340;81;21145;-62
2021/05/03 00:42:45;;;;;;;2.17;1.10;;;;;;;8.77;69.53;95344.50;1751580;81;21141;-62
2021/05/03 00:45:17;;;;;;;2.07;1.10;;;;;;;8.72;69.37;95350.70;1740371;82;21134;-62
2021/05/03 00:47:46;;;;;;;5.13;1.40;;;;;;;8.68;69.26;95349.89;1740110;82;21581;-62
2021/05/03 00:50:17;;;;;;;3.07;1.20;;;;;;;8.57;69.76;95356.64;1740147;82;21289;-62
2021/05/03 00:52:45;;;;;;;3.30;1.47;;;;;;;8.58;69.67;95355.73;1740153;82;21257;-62
2021/05/03 00:55:14;;;;;;;4.30;1.10;;;;;;;8.58;69.95;95359.67;1740271;82;21133;-62
2021/05/03 00:57:43;;;;;;;1.30;0.97;;;;;;;8.54;69.67;95348.80;1740134;82;21690;-62
2021/05/03 01:00:13;;;;;;;3.10;1.30;;;;;;;8.47;69.96;95345.83;1740215;82;21676;-62
2021/05/03 01:02:41;;;;;;;1.70;1.10;;;;;;;8.44;70.40;95345.84;1740317;82;21299;-62
2021/05/03 01:05:11;;;;;;;1.10;0.87;;;;;;;8.38;70.23;95340.20;1740342;82;21146;-62
2021/05/03 01:07:40;;;;;;;1.03;0.93;;;;;;;8.41;70.33;95347.22;1740321;82;21690;-62
2021/05/03 01:10:09;;;;;;;2.27;1.00;;;;;;;8.33;70.68;95351.23;1740115;82;21272;-62
2021/05/03 01:12:38;;;;;;;1.40;1.10;;;;;;;8.32;71.36;95362.66;1740029;82;21283;-62
2021/05/03 01:15:11;;;;;;;1.20;0.90;;;;;;;8.27;71.71;95357.91;1740110;81;21303;-62
2021/05/03 01:17:41;;;;;;;3.58;1.12;;;;;;;8.29;71.16;95360.49;1740357;82;21695;-62
2021/05/03 01:20:13;;;;;;;2.83;1.43;;;;;;;8.32;71.25;95373.17;1740207;82;21699;-62
2021/05/03 01:22:41;;;;;;;3.13;1.70;;;;;;;8.31;71.28;95359.58;1740072;81;21703;-62
2021/05/03 01:25:12;;;;;;;1.80;1.40;;;;;;;8.35;70.77;95367.00;1740322;82;21264;-62
2021/05/03 01:27:39;;;;;;;2.60;1.40;;;;;;;8.35;70.47;95363.05;1740044;82;21276;-62
2021/05/03 01:30:09;;;;;;;3.57;1.40;;;;;;;8.25;70.33;95355.73;1740266;82;21149;-62
2021/05/03 01:32:36;;;;;;;3.17;1.40;;;;;;;8.23;70.24;95364.08;1740112;81;21303;-62
2021/05/03 01:35:06;;;;;;;1.33;1.23;;;;;;;8.21;70.06;95362.80;1740251;82;21288;-62
2021/05/03 01:37:34;;;;;;;3.63;1.37;;;;;;;8.19;69.90;95363.27;1740149;82;21295;-62
2021/05/03 01:40:04;;;;;;;3.00;1.37;;;;;;;8.15;69.88;95361.55;1740137;82;21320;-62
2021/05/03 01:42:31;;;;;;;1.83;1.43;;;;;;;8.11;69.94;95365.09;1740029;82;21343;-62
2021/05/03 01:45:01;;;;;;;5.53;1.43;;;;;;;8.07;69.98;95368.67;1740234;81;21296;-62
2021/05/03 01:47:31;;;;;;;2.73;1.50;;;;;;;8.04;70.29;95370.03;1740149;82;21265;-62
2021/05/03 01:49:59;;;;;;;1.63;1.53;;;;;;;7.97;70.54;95365.73;1740079;82;21170;-62
2021/05/03 01:52:27;;;;;;;2.00;1.70;;;;;;;7.88;69.92;95374.58;1740168;82;21750;-62
2021/05/03 01:54:55;;;;;;;1.80;1.40;;;;;;;7.87;69.87;95374.61;1740237;82;21304;-62
2021/05/03 01:57:23;;;;;;;1.93;1.73;;;;;;;7.82;69.86;95373.80;1739949;82;21146;-62
2021/05/03 01:59:53;;;;;;;3.70;1.90;;;;;;;7.80;69.79;95380.38;1740078;82;21268;-62
2021/05/03 02:02:20;;;;;;;2.80;1.97;;;;;;;7.74;69.81;95377.38;1740137;82;21177;-62
2021/05/03 02:04:49;;;;;;;4.50;1.90;;;;;;;7.68;69.53;95377.42;1740096;82;21300;-62
2021/05/03 02:07:17;;;;;;;4.63;2.00;;;;;;;7.61;69.89;95379.72;1740182;82;21284;-62
2021/05/03 02:09:46;;;;;;;3.10;1.90;;;;;;;7.54;69.74;95375.41;1740154;82;21299;-62
2021/05/03 02:12:14;;;;;;;3.20;2.10;;;;;;;7.48;69.99;95382.87;1739886;82;21304;-62
2021/05/03 02:14:42;;;;;;;3.30;2.17;;;;;;;7.43;70.22;95380.75;1740218;82;21152;-62
2021/05/03 02:17:11;;;;;;;2.60;2.40;;;;;;;7.43;69.91;95390.38;1740169;82;21283;-62
2021/05/03 02:19:42;;;;;;;3.10;2.40;;;;;;;7.39;70.17;95382.99;1740372;82;21292;-62
2021/05/03 02:22:10;;;;;;;2.47;2.27;;;;;;;7.35;70.32;95388.70;1740244;82;21271;-62
2021/05/03 02:24:37;;;;;;;2.70;2.30;;;;;;;7.36;70.61;95394.39;1740137;82;21344;-62
2021/05/03 02:27:08;;;;;;;3.80;2.50;;;;;;;7.36;70.74;95385.66;1740009;82;21173;-62
2021/05/03 02:29:36;;;;;;;4.33;2.33;;;;;;;7.34;70.83;95394.84;1740183;82;21746;-62
2021/05/03 02:32:03;;;;;;;3.17;2.20;;;;;;;7.31;71.33;95398.81;1739848;82;21126;-62
2021/05/03 02:34:31;;;;;;;2.87;2.17;;;;;;;7.30;71.27;95402.75;1740257;82;21521;-62
2021/05/03 02:36:59;;;;;;;3.23;2.20;;;;;;;7.30;71.09;95400.98;1740447;82;21276;-62
2021/05/03 02:39:26;;;;;;;2.97;2.40;;;;;;;7.32;71.45;95404.92;1740035;82;21157;-62
2021/05/03 02:41:54;;;;;;;2.90;2.57;;;;;;;7.29;71.40;95412.39;1740217;81;21296;-62
2021/05/03 02:44:21;;;;;;;2.73;1.93;;;;;;;7.29;71.37;95419.39;1747811;81;21129;-62
2021/05/03 02:46:49;;;;;;;2.33;2.10;;;;;;;7.30;71.37;95426.38;1753976;81;21137;-62
2021/05/03 02:49:17;;;;;;;2.47;2.27;;;;;;;7.29;71.36;95418.95;1754250;82;21149;-62
2021/05/03 02:51:45;;;;;;;4.33;2.47;;;;;;;7.32;71.28;95426.79;1754055;81;21605;-62
2021/05/03 02:54:13;;;;;;;2.20;2.00;;;;;;;7.30;71.12;95426.38;1754025;82;21105;-62
2021/05/03 02:56:40;;;;;;;2.13;1.73;;;;;;;7.23;71.68;95441.32;1754286;82;21165;-62
2021/05/03 02:59:08;;;;;;;2.63;2.23;;;;;;;7.14;71.83;95434.38;1754360;82;21161;-62
2021/05/03 03:01:35;;;;;;;3.00;2.70;;;;;;;7.13;71.77;95439.20;1754060;82;21157;-62
2021/05/03 03:04:04;;;;;;;2.97;2.67;;;;;;;7.14;71.48;95446.18;1754346;81;21145;-62
2021/05/03 03:06:32;;;;;;;2.43;2.20;;;;;;;7.13;71.49;95447.08;1754252;82;21157;-62
2021/05/03 03:08:59;;;;;;;3.50;2.97;;;;;;;7.11;71.74;95448.83;1754222;82;21113;-62
2021/05/03 03:11:28;;;;;;;3.23;2.50;;;;;;;7.09;71.45;95458.47;1754486;82;21279;-62
2021/05/03 03:13:56;;;;;;;4.30;2.93;;;;;;;7.04;71.83;95465.50;1754126;82;21520;-62
2021/05/03 03:16:26;;;;;;;2.70;2.17;;;;;;;7.05;71.69;95461.98;1754624;81;21162;-62
2021/05/03 03:18:59;;;;;;;2.70;2.50;;;;;;;7.06;71.86;95468.98;1754462;82;21145;-62
2021/05/03 03:21:27;;;;;;;3.02;2.55;;;;;;;7.04;71.96;95475.13;1754419;82;21121;-62
2021/05/03 03:23:55;;;;;;;3.73;2.70;;;;;;;7.04;71.93;95479.92;1754263;82;21177;-61
2021/05/03 03:26:22;;;;;;;3.00;2.70;;;;;;;7.03;71.91;95486.06;1754200;82;21599;-62
2021/05/03 03:28:50;;;;;;;3.10;2.53;;;;;;;7.07;71.82;95493.02;1754223;81;21147;-61
2021/05/03 03:31:18;;;;;;;4.00;2.80;;;;;;;7.07;71.82;95498.27;1754405;81;21137;-62
2021/05/03 03:33:46;;;;;;;3.67;2.93;;;;;;;7.03;71.89;95500.50;1754245;82;21157;-61
2021/05/03 03:36:13;;;;;;;3.87;3.10;;;;;;;7.05;71.95;95522.32;1754081;82;21161;-62
2021/05/03 03:38:41;;;;;;;3.20;2.60;;;;;;;7.04;72.08;95514.48;1754185;82;21130;-62
2021/05/03 03:41:08;;;;;;;2.80;2.00;;;;;;;7.01;72.23;95525.00;1754537;82;21296;-62
2021/05/03 03:43:36;;;;;;;2.07;1.50;;;;;;;6.97;72.43;95536.38;1753807;81;21148;-62
2021/05/03 03:46:04;;;;;;;4.57;3.30;;;;;;;6.95;72.42;95528.50;1754493;82;21275;-62
2021/05/03 03:48:32;;;;;;;2.80;2.20;;;;;;;6.93;72.30;95539.02;1754188;81;21132;-62
2021/05/03 03:50:59;;;;;;;2.97;2.07;;;;;;;6.98;72.44;95543.35;1754204;81;21149;-62
2021/05/03 03:53:27;;;;;;;5.20;4.10;;;;;;;6.98;72.70;95540.73;1754191;82;21141;-62
2021/05/03 03:55:54;;;;;;;4.30;3.50;;;;;;;7.01;72.61;95548.61;1754029;82;21125;-62
2021/05/03 03:58:22;;;;;;;3.33;3.03;;;;;;;7.06;72.38;95544.20;1754153;81;21126;-62
2021/05/03 04:00:50;;;;;;;3.87;3.07;;;;;;;7.12;72.25;95546.78;1726795;82;21145;-62
2021/05/03 04:03:20;;;;;;;4.77;3.13;;;;;;;7.15;71.88;95548.93;1754214;82;21587;-62
2021/05/03 04:27:36;;;;;;;3.73;2.93;;;;;;;7.53;70.39;95583.27;1754382;82;20170;-62
2021/05/03 04:30:09;;;;;;;5.53;3.63;;;;;;;7.51;70.56;95578.47;1754551;82;21306;-61
2021/05/03 04:32:39;;;;;;;3.55;2.98;;;;;;;7.56;70.59;95576.68;1753545;82;21137;-62
2021/05/03 04:35:08;;;;;;;4.47;3.50;;;;;;;7.59;70.36;95574.03;1754210;81;21586;-62
2021/05/03 04:37:35;;;;;;;4.50;3.87;;;;;;;7.64;70.02;95574.00;1754149;82;21141;-62
2021/05/03 04:40:06;;;;;;;4.77;2.80;;;;;;;7.74;70.01;95566.48;1754056;82;21890;-61
2021/05/03 04:42:34;;;;;;;3.67;2.83;;;;;;;7.84;69.54;95576.88;1754162;82;21566;-63
2021/05/03 04:45:01;;;;;;;5.83;3.27;;;;;;;8.00;69.86;95578.52;1754028;81;21160;-61
2021/05/03 04:47:28;;;;;;;4.20;3.80;;;;;;;8.13;68.96;95575.33;1754172;82;21148;-62
2021/05/03 04:49:58;;;;;;;3.53;3.23;;;;;;;8.23;68.20;95582.23;1754186;81;21129;-62
2021/05/03 04:52:26;;;;;;;5.40;4.13;;;;;;;8.30;67.82;95585.69;1754072;81;21133;-62
2021/05/03 04:54:54;;;;;;;4.93;3.60;;;;;;;8.36;67.77;95586.48;1754235;81;21190;-62
2021/05/03 04:57:22;;;;;;;4.13;2.80;;;;;;;8.33;67.53;95583.02;1754329;82;21114;-62
2021/05/03 04:59:49;;;;;;;3.83;2.80;;;;;;;8.29;68.14;95587.45;1753858;82;21130;-62
2021/05/03 05:02:17;;;;;;;3.10;2.80;;;;;;;8.18;67.33;95580.09;1754154;82;21110;-62
2021/05/03 05:04:45;;;;;;;3.33;2.97;;;;;;;8.09;67.96;95595.94;1754419;82;21137;-62
2021/05/03 05:07:12;;;;;;;3.40;2.97;;;;;;;8.06;67.86;95592.89;1754089;82;21137;-62
2021/05/03 05:09:41;;;;;;;5.03;3.77;;;;;;;8.02;67.67;95585.95;1754233;82;21157;-62
2021/05/03 05:12:09;;;;;;;5.97;3.47;;;;;;;7.98;67.78;95601.30;1754532;81;21137;-62
2021/05/03 05:14:36;;;;;;;3.97;3.57;;;;;;;7.88;68.36;95599.62;1754141;81;21165;-62
2021/05/03 05:17:05;;;;;;;6.57;3.60;;;;;;;7.85;68.20;95602.29;1726683;82;21552;-62
2021/05/03 05:19:34;;;;;;;4.07;3.57;;;;;;;7.80;68.27;95606.26;1754126;81;21475;-62
2021/05/03 05:22:02;;;;;;;5.67;3.90;;;;;;;7.80;68.31;95618.94;1753985;81;21129;-62
2021/05/03 05:24:30;;;;;;;4.53;3.67;;;;;;;7.79;68.52;95617.22;1754163;82;21157;-62
2021/05/03 05:26:57;;;;;;;4.50;3.70;;;;;;;7.92;68.44;95616.67;1754159;81;21129;-62
2021/05/03 05:29:25;;;;;;;5.00;4.10;;;;;;;7.96;68.64;95630.64;1753978;81;21141;-62
2021/05/03 05:31:53;;;;;;;4.47;4.07;;;;;;;8.00;68.33;95618.79;1754262;82;21106;-62
2021/05/03 05:34:21;;;;;;;4.10;3.33;;;;;;;8.06;68.46;95633.63;1754336;82;21129;-62
2021/05/03 05:36:49;;;;;;;6.30;3.77;;;;;;;8.11;68.07;95635.77;1754218;82;21126;-62
2021/05/03 05:39:17;;;;;;;5.10;4.30;;;;;;;8.16;67.57;95642.31;1754806;82;21658;-62
2021/05/03 05:41:44;;;;;;;4.43;3.60;;;;;;;8.23;67.44;95650.13;1753918;82;21148;-62
2021/05/03 05:44:13;;;;;;;5.17;3.73;;;;;;;8.26;67.13;95645.73;1753888;81;21137;-62
2021/05/03 05:46:41;;;;;;;5.63;4.03;;;;;;;8.38;67.10;95643.86;1754197;82;21118;-62
2021/05/03 05:49:08;;;;;;;4.13;3.27;;;;;;;8.53;66.68;95646.83;1754036;81;21169;-62
2021/05/03 05:51:36;;;;;;;5.17;4.30;;;;;;;8.63;66.17;95647.61;1754113;81;21142;-62
2021/05/03 05:54:04;;;;;;;4.60;4.10;;;;;;;8.63;65.35;95660.31;1754215;81;21160;-62
2021/05/03 05:56:31;;;;;;;4.30;3.57;;;;;;;8.63;65.31;95652.88;1754198;82;21134;-62
2021/05/03 05:58:59;;;;;;;5.47;4.37;;;;;;;8.63;65.11;95659.00;1754118;82;21544;-62
2021/05/03 06:01:27;;;;;;;5.17;4.40;;;;;;;8.66;66.09;95669.48;1754486;82;21302;-62
2021/05/03 06:03:55;;;;;;;4.93;4.10;;;;;;;8.72;65.79;95668.58;1753977;82;21611;-62
2021/05/03 06:06:23;;;;;;;6.17;4.33;;;;;;;8.81;64.61;95664.51;1754406;82;21140;-62
2021/05/03 06:08:51;;;;;;;4.90;4.40;;;;;;;8.90;64.34;95664.01;1754325;82;21133;-62
2021/05/03 06:11:18;;;;;;;4.80;4.30;;;;;;;8.95;63.62;95672.27;1754369;82;21140;-62
2021/05/03 06:13:46;;;;;;;4.70;4.20;;;;;;;9.00;62.92;95659.94;1754158;82;21563;-62
2021/05/03 06:16:13;;;;;;;7.40;4.80;;;;;;;9.27;63.71;95666.64;1754090;82;21118;-62
2021/05/03 06:18:41;;;;;;;4.93;4.47;;;;;;;9.69;62.49;95652.45;1754122;82;21134;-62
2021/05/03 06:21:08;;;;;;;6.70;3.83;;;;;;;10.07;62.90;95665.50;1754199;81;21133;-62
2021/05/03 06:23:36;;;;;;;3.20;2.90;;;;;;;10.39;59.55;95654.48;1754196;82;21136;-62
2021/05/03 06:26:04;;;;;;;4.10;2.87;;;;;;;10.74;59.51;95661.36;1754558;82;21275;-62
2021/05/03 06:28:31;;;;;;;4.50;4.10;;;;;;;10.71;55.30;95666.25;1753963;82;21157;-62
2021/05/03 06:30:59;;;;;;;8.13;5.77;;;;;;;10.77;58.83;95663.48;1754041;82;21181;-62
2021/05/03 06:33:28;;;;;;;4.67;4.17;;;;;;;10.76;57.15;95668.78;1754153;82;21555;-62
2021/05/03 06:35:55;;;;;;;4.27;3.57;;;;;;;10.83;58.63;95667.35;1754061;82;21141;-62
2021/05/03 06:38:23;;;;;;;4.63;3.60;;;;;;;10.79;56.42;95665.66;1754188;82;21141;-62
2021/05/03 06:40:51;;;;;;;4.23;3.60;;;;;;;10.75;55.65;95672.33;1754209;82;21109;-62
2021/05/03 06:43:19;;;;;;;3.80;3.50;;;;;;;10.69;56.71;95671.13;1754296;82;21145;-62
2021/05/03 06:45:47;;;;;;;4.10;3.50;;;;;;;10.72;57.74;95672.39;1753814;81;21616;-62
2021/05/03 06:48:15;;;;;;;4.90;3.63;;;;;;;10.72;56.59;95679.85;1754131;81;21603;-62
2021/05/03 06:50:45;;;;;;;3.40;3.10;;;;;;;10.64;56.93;95671.21;1754150;82;21579;-62
2021/05/03 06:53:14;;;;;;;3.30;3.00;;;;;;;10.59;56.40;95671.28;1754296;81;21563;-62
2021/05/03 06:55:42;;;;;;;3.90;3.57;;;;;;;10.57;57.08;95669.57;1754124;81;21141;-62
2021/05/03 06:58:10;;;;;;;3.87;2.70;;;;;;;10.52;57.07;95677.56;1754272;82;21137;-62
2021/05/03 07:00:41;;;;;;;2.47;2.20;;;;;;;10.42;56.67;95668.06;1754059;82;21607;-62
2021/05/03 07:03:11;;;;;;;3.10;2.80;;;;;;;10.14;55.99;95674.20;1754211;82;21563;-62
2021/05/03 07:05:40;;;;;;;3.67;2.90;;;;;;;10.04;56.80;95684.47;1754138;81;21094;-62
2021/05/03 07:08:10;;;;;;;2.83;2.53;;;;;;;10.08;58.40;95680.45;1754162;81;21145;-62
2021/05/03 07:10:44;;;;;;;2.37;1.80;;;;;;;10.04;57.44;95677.42;1754362;82;21121;-62
2021/05/03 07:13:08;;;;;;;3.10;2.57;;;;;;;10.11;58.41;95674.26;1753665;82;21149;-62
2021/05/03 07:15:38;;;;;;;3.17;2.70;;;;;;;10.03;57.89;95662.94;1753879;81;21136;-62
2021/05/03 07:18:06;;;;;;;2.50;2.20;;;;;;;10.00;57.88;95666.94;1754078;81;21145;-62
2021/05/03 07:20:34;;;;;;;2.87;2.57;;;;;;;9.88;58.79;95671.52;1753975;82;21145;-62
2021/05/03 07:23:07;;;;;;;3.00;2.70;;;;;;;9.96;58.56;95684.58;1754081;81;21144;-62
2021/05/03 07:25:36;;;;;;;2.70;2.50;;;;;;;9.96;58.17;95678.86;1754445;82;21572;-62
2021/05/03 07:28:04;;;;;;;2.93;2.63;;;;;;;9.96;57.50;95681.49;1753913;81;21150;-62
2021/05/03 07:30:32;;;;;;;2.80;2.47;;;;;;;9.97;58.73;95679.72;1754229;81;21136;-62
2021/05/03 07:33:00;;;;;;;3.90;2.47;;;;;;;10.05;57.80;95689.70;1754049;82;21137;-62
2021/05/03 07:35:27;;;;;;;13.70;9.80;;;;;;;10.13;57.93;95690.90;1754101;81;21591;-62
2021/05/03 07:37:55;;;;;;;2.30;2.10;;;;;;;10.20;57.80;95695.19;1754329;82;21126;-62
2021/05/03 07:40:22;;;;;;;2.80;2.00;;;;;;;10.34;59.10;95686.66;1754056;81;22397;-62
2021/05/03 07:42:51;;;;;;;1.80;1.70;;;;;;;10.46;56.55;95693.92;1754328;82;21132;-62
2021/05/03 07:45:19;;;;;;;1.73;1.53;;;;;;;10.55;56.30;95684.55;1748896;81;21168;-62
2021/05/03 07:47:47;;;;;;;2.70;2.20;;;;;;;10.55;54.78;95701.24;1717837;82;21540;-62
2021/05/03 07:50:15;;;;;;;2.63;2.20;;;;;;;10.66;55.60;95704.14;1740208;82;21316;-62
2021/05/03 07:52:43;;;;;;;1.90;1.70;;;;;;;10.82;56.28;95699.91;1740239;82;21267;-62
2021/05/03 07:55:12;;;;;;;2.10;1.90;;;;;;;10.87;54.17;95698.96;1740052;82;21304;-62
2021/05/03 07:57:40;;;;;;;2.60;1.70;;;;;;;10.97;54.89;95704.49;1740275;82;21312;-62
2021/05/03 08:00:09;;;;;;;2.23;2.00;;;;;;;11.07;54.47;95699.46;1740436;82;21106;-62
2021/05/03 08:02:37;;;;;;;2.23;1.67;;;;;;;11.20;55.10;95706.24;1740094;82;21260;-62
2021/05/03 08:05:07;;;;;;;2.73;2.40;;;;;;;11.23;53.25;95710.14;1740239;82;21715;-62
2021/05/03 08:07:34;;;;;;;3.67;1.90;;;;;;;11.30;54.58;95707.39;1740554;81;21149;-62
2021/05/03 08:10:01;;;;;;;2.03;1.83;;;;;;;11.32;52.49;95716.17;1740114;82;21714;-62
2021/05/03 08:12:29;;;;;;;2.07;1.87;;;;;;;11.43;52.28;95718.13;1740331;82;21718;-62
2021/05/03 08:14:58;;;;;;;2.03;1.90;;;;;;;11.45;53.05;95720.30;1740310;82;21150;-62
2021/05/03 08:17:26;;;;;;;2.07;1.67;;;;;;;11.49;53.18;95714.06;1740380;81;21137;-62
2021/05/03 08:19:53;;;;;;;2.60;2.30;;;;;;;11.43;51.09;95715.03;1740141;82;21284;-62
2021/05/03 08:22:21;;;;;;;2.10;1.90;;;;;;;11.52;51.72;95717.09;1740072;82;21256;-62
2021/05/03 08:24:48;;;;;;;1.27;1.10;;;;;;;11.81;50.93;95723.08;1740161;82;21300;-62
2021/05/03 08:27:16;;;;;;;1.90;1.67;;;;;;;11.90;49.75;95728.21;1740188;82;21308;-62
2021/05/03 08:29:44;;;;;;;2.00;1.90;;;;;;;11.74;49.96;95726.75;1740088;82;21706;-62
2021/05/03 08:32:11;;;;;;;2.27;2.07;;;;;;;11.99;50.63;95720.06;1740254;82;21722;-62
2021/05/03 08:34:40;;;;;;;2.10;1.90;;;;;;;12.28;49.50;95718.55;1740337;82;21174;-62
2021/05/03 08:37:08;;;;;;;2.40;2.20;;;;;;;12.49;50.23;95725.96;1740561;82;21146;-62
2021/05/03 08:39:36;;;;;;;1.40;1.30;;;;;;;12.55;48.70;95739.06;1740236;82;21284;-62
2021/05/03 08:42:06;;;;;;;2.00;1.90;;;;;;;12.44;46.05;95725.20;1740132;82;21299;-62
2021/05/03 08:44:35;;;;;;;2.23;1.73;;;;;;;12.40;48.75;95718.69;1739885;82;21150;-62
2021/05/03 08:47:03;;;;;;;3.13;2.33;;;;;;;12.69;48.74;95710.92;1740115;82;21161;-62
2021/05/03 08:52:22;;;;;;;1.67;1.47;;;;;;;13.31;47.39;95724.80;1721877;82;21109;-62
2021/05/03 08:54:48;;;;;;;3.87;1.70;;;;;;;13.38;44.53;95733.44;1740168;82;21285;-62
2021/05/03 08:57:17;;;;;;;3.50;2.70;;;;;;;13.27;43.97;95728.44;1719602;82;21580;-63
2021/05/03 08:59:45;;;;;;;8.63;4.33;;;;;;;13.14;46.12;95740.25;1740251;82;21288;-62
2021/05/03 09:02:16;;;;;;;3.53;3.00;;;;;;;13.07;44.70;95750.13;1740190;82;21576;-62
2021/05/03 09:04:45;;;;;;;2.47;2.07;;;;;;;13.09;46.70;95742.15;1740404;82;21158;-62
2021/05/03 09:07:19;;;;;;;2.03;1.90;;;;;;;13.33;48.97;95744.19;1740100;82;21299;-62
2021/05/03 09:09:51;;;;;;;3.03;2.73;;;;;;;13.53;46.14;95747.63;1740155;82;21142;-62
2021/05/03 09:12:23;;;;;;;3.97;2.60;;;;;;;13.82;46.60;95750.76;1740330;82;21149;-62
2021/05/03 09:15:00;;;;;;;3.00;2.70;;;;;;;13.74;48.05;95758.08;1740020;82;21268;-62
2021/05/03 09:17:38;;;;;;;2.47;2.27;;;;;;;13.64;48.05;95744.20;1739361;82;21157;-62
2021/05/03 09:20:18;;;;;;;2.30;2.10;;;;;;;13.95;47.19;95744.64;1740063;82;21116;-62
2021/05/03 09:22:53;;;;;;;2.93;2.40;;;;;;;13.92;43.59;95738.56;1740488;82;21150;-61
2021/05/03 09:25:30;;;;;;;2.53;2.27;;;;;;;14.00;44.72;95749.81;1740429;82;21134;-62
2021/05/03 09:28:20;;;;;;;1.97;1.80;;;;;;;14.01;45.08;95740.50;1740201;82;21134;-62
2021/05/03 09:30:52;;;;;;;3.97;2.50;;;;;;;14.36;44.44;95731.03;1740029;82;21121;-62
2021/05/03 09:33:38;;;;;;;2.03;1.83;;;;;;;14.52;45.47;95738.94;1739355;82;21297;-62
2021/05/03 09:36:13;;;;;;;3.30;3.00;;;;;;;14.47;42.51;95749.70;1740180;82;21300;-62
2021/05/03 09:38:51;;;;;;;3.30;3.00;;;;;;;14.53;42.76;95749.09;1740299;82;21280;-62
2021/05/03 09:41:26;;;;;;;3.57;2.37;;;;;;;14.82;45.97;95742.89;1740034;82;21115;-62
2021/05/03 09:44:07;;;;;;;2.40;2.07;;;;;;;14.91;44.13;95742.10;1740132;82;21126;-62
2021/05/03 09:46:51;;;;;;;14.50;7.47;;;;;;;15.28;45.39;95741.33;1745010;81;21177;-61
2021/05/03 09:49:21;;;;;;;72.87;37.53;;;;;;;15.41;42.20;95732.47;1748372;82;21109;-62
2021/05/03 09:51:56;;;;;;;3.27;2.87;;;;;;;15.12;42.71;95739.20;1748478;82;21125;-62
2021/05/03 09:54:31;;;;;;;4.00;2.67;;;;;;;14.88;41.43;95738.23;1748387;82;21572;-62
2021/05/03 09:57:06;;;;;;;2.40;2.20;;;;;;;14.76;41.58;95743.08;1748330;82;21118;-62
2021/05/03 09:59:52;;;;;;;3.17;2.30;;;;;;;14.78;43.79;95736.80;1748269;82;21082;-62
2021/05/03 10:02:30;;;;;;;2.97;2.50;;;;;;;14.93;41.54;95735.42;1748585;82;21137;-62
2021/05/03 10:07:34;;;;;;;3.23;2.40;;;;;;;15.36;42.03;95729.50;1748190;82;21130;-62
2021/05/03 10:10:09;;;;;;;3.37;2.23;;;;;;;15.37;40.82;95731.69;1748264;82;21094;-62
2021/05/03 10:12:35;;;;;;;2.50;2.30;;;;;;;15.59;38.92;95739.78;1748242;81;21149;-62
2021/05/03 10:15:07;;;;;;;3.50;2.43;;;;;;;15.80;38.63;95740.84;1748093;81;21189;-62
2021/05/03 10:17:38;;;;;;;2.57;2.30;;;;;;;15.68;39.58;95727.95;1748288;81;21549;-62
2021/05/03 10:20:20;;;;;;;3.53;2.37;;;;;;;15.61;41.69;95733.95;1748761;82;21268;-62
2021/05/03 10:22:55;;;;;;;2.35;2.10;;;;;;;15.54;39.67;95738.61;1748333;82;21154;-61
2021/05/03 10:25:24;;;;;;;2.60;2.23;;;;;;;15.43;40.07;95730.16;1748474;82;21133;-62
2021/05/03 10:27:53;;;;;;;2.80;2.30;;;;;;;15.52;38.91;95741.81;1748278;81;21105;-62
2021/05/03 10:30:24;;;;;;;2.33;2.13;;;;;;;15.57;40.46;95723.00;1748066;82;21114;-62
2021/05/03 10:33:04;;;;;;;2.47;2.27;;;;;;;15.78;37.94;95724.06;1748464;82;21148;-62
2021/05/03 10:35:40;;;;;;;2.77;2.23;;;;;;;15.68;37.14;95708.87;1748088;81;21600;-62
2021/05/03 10:38:38;;;;;;;1.97;1.80;;;;;;;15.61;36.41;95706.49;1718642;82;22306;-61
2021/05/03 10:41:28;;;;;;;3.43;1.87;;;;;;;15.59;36.98;95702.55;1748904;82;21138;-62
2021/05/03 10:44:25;;;;;;;2.27;1.80;;;;;;;15.76;40.45;95713.47;1748547;82;21169;-62
2021/05/03 10:49:20;;;;;;;3.73;2.17;;;;;;;15.42;35.74;95720.46;1719424;82;21121;-62
2021/05/03 10:51:52;;;;;;;2.52;2.33;;;;;;;15.09;38.05;95721.15;1740292;82;21280;-62
2021/05/03 10:57:02;;;;;;;2.60;2.40;;;;;;;15.66;38.67;95719.16;1719081;82;21154;-62
2021/05/03 10:59:52;;;;;;;3.07;2.10;;;;;;;15.77;36.58;95726.30;1740232;82;21133;-62
2021/05/03 11:02:23;;;;;;;2.13;1.93;;;;;;;16.29;39.31;95718.16;1740026;82;21703;-62
2021/05/03 11:05:28;;;;;;;5.10;2.83;;;;;;;16.62;34.94;95726.59;1740081;82;21279;-62
2021/05/03 11:08:11;;;;;;;3.27;2.83;;;;;;;16.14;37.07;95722.27;1740087;82;21159;-62
2021/05/03 11:11:07;;;;;;;2.17;1.98;;;;;;;16.02;38.02;95734.23;1740143;82;21102;-61
2021/05/03 11:13:41;;;;;;;3.17;2.47;;;;;;;15.71;34.18;95727.40;1740092;81;21138;-62
2021/05/03 11:16:31;;;;;;;2.03;1.93;;;;;;;16.00;37.05;95724.11;1718057;82;21126;-62
2021/05/03 11:19:31;;;;;;;3.53;2.40;;;;;;;15.90;36.88;95709.41;1740011;81;21158;-62
2021/05/03 11:21:57;;;;;;;2.40;1.97;;;;;;;15.52;34.49;95703.25;1740328;82;21146;-62
2021/05/03 11:24:42;;;;;;;3.03;2.27;;;;;;;15.53;36.11;95729.38;1740225;82;21737;-62
2021/05/03 11:27:08;;;;;;;4.17;2.17;;;;;;;15.31;37.53;95731.91;1703359;84;21161;-62
2021/05/03 11:29:42;;;;;;;2.87;2.30;;;;;;;15.39;38.33;95723.20;1675501;85;21145;-62
2021/05/03 11:32:07;;;;;;;3.45;3.15;;;;;;;15.86;36.02;95710.48;1674990;85;21141;-62
2021/05/03 11:35:05;;;;;;;3.13;2.53;;;;;;;16.26;36.24;95715.14;1705157;83;21173;-62
2021/05/03 11:37:37;;;;;;;2.85;1.65;;;;;;;16.65;36.56;95707.81;1698454;84;21166;-62
2021/05/03 11:40:17;;;;;;;4.27;2.33;;;;;;;16.70;35.79;95704.50;1699973;84;21141;-62
2021/05/03 11:43:46;;;;;;;2.67;2.47;;;;;;;16.43;35.75;95725.14;1698677;84;21150;-62
2021/05/03 11:45:15;;;;;;;4.83;2.30;;;;;;;15.59;33.60;95708.73;1682934;84;21169;-62
2021/05/03 11:47:43;;;;;;;4.90;2.60;;;;;;;15.35;34.14;95714.48;1704630;83;21186;-62
2021/05/03 11:50:17;;;;;;;2.30;2.10;;;;;;;15.62;35.19;95713.53;1715509;84;21156;-62
2021/05/03 11:52:44;;;;;;;2.55;2.12;;;;;;;16.36;33.32;95714.33;1687001;85;21136;-62
2021/05/03 11:55:17;;;;;;;3.27;2.20;;;;;;;16.96;30.76;95706.14;1705619;84;21601;-62
2021/05/03 11:57:47;;;;;;;4.03;2.65;;;;;;;17.20;29.36;95702.02;1715501;84;21290;-61
2021/05/03 12:00:19;;;;;;;3.37;2.75;;;;;;;17.52;31.54;95687.28;1705948;84;21159;-62
2021/05/03 12:03:12;;;;;;;2.77;2.37;;;;;;;17.76;32.35;95702.65;1715490;84;21559;-62
2021/05/03 12:05:38;;;;;;;3.67;2.22;;;;;;;18.35;29.54;95712.42;1705431;84;21560;-61
2021/05/03 12:08:15;;;;;;;2.30;2.10;;;;;;;18.87;25.57;95690.33;1715171;84;21253;-62
2021/05/03 12:10:43;;;;;;;2.27;1.82;;;;;;;19.43;23.69;95701.32;1686992;85;21113;-62
2021/05/03 12:13:20;;;;;;;1.70;1.60;;;;;;;19.43;23.69;95701.32;1705742;84;21121;-62
2021/05/03 12:15:49;;;;;;;4.75;2.22;;;;;;;20.01;24.84;95699.22;1715154;84;21228;-62
2021/05/03 12:18:19;;;;;;;2.00;1.70;;;;;;;19.91;21.84;95700.19;1705725;84;21606;-62
2021/05/03 12:20:47;;;;;;;1.95;1.80;;;;;;;19.85;22.80;95696.48;1715309;84;21164;-63
2021/05/03 12:23:16;;;;;;;2.45;2.02;;;;;;;20.25;25.45;95704.55;1705915;84;21166;-62